Time;durP1;ratioP1;P1;durP2;ratioP2;P2;SDS_P1;SDS_P2;PMS_P1;PMS_P2;Temp;Humidity;BMP_temperature;BMP_pressure;BME280_temperature;BME280_humidity;BME280_pressure;Samples;Min_cycle;Max_cycle;Signal;HPM_P1;HPM_P2
2021/12/26 00:01:02;;;;;;;4.68;3.35;;;;;;;;;;5052826;28;20033;-36
2021/12/26 00:03:30;;;;;;;6.32;4.35;;;;;;;;;;5053044;28;20048;-35
2021/12/26 00:05:58;;;;;;;5.60;4.03;;;;;;;;;;5052817;28;20025;-35
2021/12/26 00:08:24;;;;;;;6.47;4.20;;;;;;;;;;5052732;28;20025;-36
2021/12/26 00:10:50;;;;;;;5.43;3.17;;;;;;;;;;5052976;28;20070;-35
2021/12/26 00:13:18;;;;;;;6.57;3.92;;;;;;;;;;5052741;28;20036;-35
2021/12/26 00:15:44;;;;;;;5.22;3.53;;;;;;;;;;5052546;28;20115;-35
2021/12/26 00:18:10;;;;;;;6.47;4.50;;;;;;;;;;5051923;28;20155;-35
2021/12/26 00:20:37;;;;;;;8.13;4.03;;;;;;;;;;5052488;28;20043;-35
2021/12/26 00:23:03;;;;;;;4.47;3.10;;;;;;;;;;5052557;28;20497;-35
2021/12/26 00:25:29;;;;;;;8.48;4.90;;;;;;;;;;5052476;28;20033;-35
2021/12/26 00:27:54;;;;;;;8.73;4.05;;;;;;;;;;5052807;28;20029;-35
2021/12/26 00:30:21;;;;;;;3.78;2.63;;;;;;;;;;5052618;28;20021;-36
2021/12/26 00:32:49;;;;;;;7.00;4.00;;;;;;;;;;5052366;28;20024;-36
2021/12/26 00:35:16;;;;;;;7.50;4.80;;;;;;;;;;5052575;28;20500;-35
2021/12/26 00:37:43;;;;;;;6.28;3.35;;;;;;;;;;5052238;28;20045;-35
2021/12/26 00:40:11;;;;;;;5.88;5.13;;;;;;;;;;5052321;28;20063;-35
2021/12/26 00:42:36;;;;;;;7.72;5.30;;;;;;;;;;5052180;28;20017;-35
2021/12/26 00:45:04;;;;;;;6.53;4.47;;;;;;;;;;5052248;28;20052;-35
2021/12/26 00:47:32;;;;;;;7.78;5.22;;;;;;;;;;5051966;28;20048;-35
2021/12/26 00:49:58;;;;;;;10.38;6.70;;;;;;;;;;5052464;28;20025;-36
2021/12/26 00:52:23;;;;;;;10.77;6.82;;;;;;;;;;5052112;28;20028;-35
2021/12/26 00:54:49;;;;;;;7.13;4.97;;;;;;;;;;5052136;28;20032;-36
2021/12/26 00:57:15;;;;;;;10.98;7.72;;;;;;;;;;5052091;28;20033;-35
2021/12/26 00:59:40;;;;;;;9.60;6.63;;;;;;;;;;5052411;28;20024;-36
2021/12/26 01:02:05;;;;;;;9.77;6.65;;;;;;;;;;5052122;28;20392;-35
2021/12/26 01:04:31;;;;;;;10.80;8.20;;;;;;;;;;5050760;28;20025;-36
2021/12/26 01:06:57;;;;;;;11.38;6.88;;;;;;;;;;5052486;28;20047;-35
2021/12/26 01:09:27;;;;;;;11.10;5.97;;;;;;;;;;5051990;28;20068;-36
2021/12/26 01:11:56;;;;;;;7.90;5.78;;;;;;;;;;5052216;28;20076;-36
2021/12/26 01:14:30;;;;;;;12.05;6.07;;;;;;;;;;5052227;28;20056;-36
2021/12/26 01:17:08;;;;;;;9.57;6.30;;;;;;;;;;5052111;28;20021;-36
2021/12/26 01:19:43;;;;;;;12.10;8.32;;;;;;;;;;5052284;28;20037;-35
2021/12/26 01:22:10;;;;;;;10.55;7.57;;;;;;;;;;5052310;28;20044;-36
2021/12/26 01:24:36;;;;;;;12.10;7.75;;;;;;;;;;5052162;28;20105;-35
2021/12/26 01:27:02;;;;;;;11.05;6.82;;;;;;;;;;5052249;28;20536;-35
2021/12/26 01:29:27;;;;;;;11.95;7.80;;;;;;;;;;5052092;28;20457;-36
2021/12/26 01:31:53;;;;;;;9.27;5.53;;;;;;;;;;5055858;28;20028;-36
2021/12/26 01:34:18;;;;;;;11.25;7.40;;;;;;;;;;5055696;28;20056;-35
2021/12/26 01:36:44;;;;;;;10.15;6.80;;;;;;;;;;5055675;28;20065;-35
2021/12/26 01:39:10;;;;;;;12.60;7.95;;;;;;;;;;5055475;28;20036;-35
2021/12/26 01:41:40;;;;;;;12.48;8.77;;;;;;;;;;5056181;28;20021;-35
2021/12/26 01:44:09;;;;;;;10.50;7.57;;;;;;;;;;5055837;28;20029;-36
2021/12/26 01:46:35;;;;;;;13.55;7.78;;;;;;;;;;5055873;28;20029;-36
2021/12/26 01:49:02;;;;;;;9.50;6.40;;;;;;;;;;5055842;28;20036;-35
2021/12/26 01:51:27;;;;;;;9.35;6.28;;;;;;;;;;5056047;28;20025;-35
2021/12/26 01:53:53;;;;;;;10.88;6.30;;;;;;;;;;5056047;28;20068;-35
2021/12/26 01:56:18;;;;;;;6.22;3.90;;;;;;;;;;5055867;28;20528;-36
2021/12/26 01:58:44;;;;;;;12.80;8.57;;;;;;;;;;5055573;28;20025;-35
2021/12/26 02:01:12;;;;;;;10.93;7.72;;;;;;;;;;5055510;28;20153;-35
2021/12/26 02:03:39;;;;;;;12.20;5.85;;;;;;;;;;5055377;28;20475;-36
2021/12/26 02:06:06;;;;;;;14.65;8.57;;;;;;;;;;5055402;28;20512;-35
2021/12/26 02:08:32;;;;;;;11.02;7.75;;;;;;;;;;5055764;28;20070;-37
2021/12/26 02:11:00;;;;;;;9.65;7.93;;;;;;;;;;5055450;28;20104;-36
2021/12/26 02:13:27;;;;;;;11.93;8.23;;;;;;;;;;5055344;28;20037;-35
2021/12/26 02:15:53;;;;;;;11.18;7.28;;;;;;;;;;5055549;28;20369;-35
2021/12/26 02:18:19;;;;;;;9.35;5.80;;;;;;;;;;5055239;28;20503;-35
2021/12/26 02:23:43;;;;;;;11.05;5.35;;;;;;;;;;5055510;28;20036;-36
2021/12/26 02:28:43;;;;;;;11.43;7.43;;;;;;;;;;5055038;28;20032;-35
2021/12/26 02:31:09;;;;;;;8.43;5.95;;;;;;;;;;5055362;28;20024;-36
2021/12/26 02:33:35;;;;;;;10.55;6.20;;;;;;;;;;5055228;28;20021;-36
2021/12/26 02:36:01;;;;;;;7.18;4.80;;;;;;;;;;5054960;28;20025;-35
2021/12/26 02:38:27;;;;;;;9.57;5.75;;;;;;;;;;5054994;28;20064;-36
2021/12/26 02:40:54;;;;;;;10.43;5.82;;;;;;;;;;5053470;28;20067;-36
2021/12/26 02:43:23;;;;;;;6.07;4.38;;;;;;;;;;5053046;28;20031;-36
2021/12/26 02:45:49;;;;;;;12.38;5.90;;;;;;;;;;5054326;28;20155;-35
2021/12/26 02:48:15;;;;;;;7.45;5.25;;;;;;;;;;5053559;28;20040;-35
2021/12/26 02:50:43;;;;;;;8.93;5.53;;;;;;;;;;5054778;28;20029;-35
2021/12/26 02:53:12;;;;;;;6.07;3.00;;;;;;;;;;5054732;28;20544;-35
2021/12/26 02:55:39;;;;;;;8.68;3.45;;;;;;;;;;5053040;28;20429;-35
2021/12/26 02:58:07;;;;;;;6.80;4.25;;;;;;;;;;5054578;28;20029;-36
2021/12/26 03:00:38;;;;;;;5.13;3.35;;;;;;;;;;5054526;28;20021;-35
2021/12/26 03:03:05;;;;;;;7.32;5.13;;;;;;;;;;5054281;28;20025;-35
2021/12/26 03:05:35;;;;;;;9.55;5.78;;;;;;;;;;5054423;28;20090;-35
2021/12/26 03:08:01;;;;;;;9.57;6.13;;;;;;;;;;5054123;28;20094;-35
2021/12/26 03:10:27;;;;;;;9.13;5.70;;;;;;;;;;5054003;28;20053;-35
2021/12/26 03:12:59;;;;;;;9.25;5.95;;;;;;;;;;5054235;28;20055;-35
2021/12/26 03:15:27;;;;;;;6.95;4.10;;;;;;;;;;5053435;28;20028;-35
2021/12/26 03:17:54;;;;;;;6.22;3.95;;;;;;;;;;5053998;28;20032;-36
2021/12/26 03:20:23;;;;;;;9.68;5.45;;;;;;;;;;5053855;28;20051;-36
2021/12/26 03:22:49;;;;;;;10.18;6.05;;;;;;;;;;5054009;28;20021;-36
2021/12/26 03:25:18;;;;;;;9.73;5.28;;;;;;;;;;5053492;28;20024;-35
2021/12/26 03:27:43;;;;;;;8.93;5.50;;;;;;;;;;5054094;28;20029;-35
2021/12/26 03:30:11;;;;;;;9.68;4.50;;;;;;;;;;5053385;28;20465;-35
2021/12/26 03:32:37;;;;;;;7.47;4.85;;;;;;;;;;5053871;28;20032;-36
2021/12/26 03:35:03;;;;;;;9.38;6.15;;;;;;;;;;5053799;28;20043;-35
2021/12/26 03:37:29;;;;;;;7.40;4.68;;;;;;;;;;5053267;28;20613;-35
2021/12/26 03:39:55;;;;;;;8.57;4.35;;;;;;;;;;5053594;28;20033;-36
2021/12/26 03:42:21;;;;;;;8.50;4.97;;;;;;;;;;5053303;28;20013;-35
2021/12/26 03:44:48;;;;;;;7.65;4.63;;;;;;;;;;5053487;28;20047;-35
2021/12/26 03:47:14;;;;;;;8.88;5.53;;;;;;;;;;5052996;28;20106;-35
2021/12/26 03:49:40;;;;;;;7.40;4.78;;;;;;;;;;5053465;28;20025;-35
2021/12/26 03:52:06;;;;;;;9.40;5.32;;;;;;;;;;5052701;28;20029;-36
2021/12/26 03:54:32;;;;;;;7.97;4.65;;;;;;;;;;5052983;28;20021;-35
2021/12/26 03:56:58;;;;;;;8.18;4.47;;;;;;;;;;5053378;28;20392;-35
2021/12/26 03:59:23;;;;;;;5.53;3.60;;;;;;;;;;5052945;28;20439;-36
2021/12/26 04:01:49;;;;;;;4.15;3.13;;;;;;;;;;5052929;28;20036;-35
2021/12/26 04:04:15;;;;;;;9.45;4.60;;;;;;;;;;5052918;28;20017;-35
2021/12/26 04:06:41;;;;;;;6.32;3.97;;;;;;;;;;5052919;28;20044;-36
2021/12/26 04:09:08;;;;;;;5.05;2.33;;;;;;;;;;5052795;28;20064;-35
2021/12/26 04:11:35;;;;;;;4.88;3.50;;;;;;;;;;5053082;28;20037;-35
2021/12/26 04:14:02;;;;;;;7.70;3.88;;;;;;;;;;5052724;28;20056;-36
2021/12/26 04:16:28;;;;;;;3.88;2.58;;;;;;;;;;5052739;28;20029;-35
2021/12/26 04:18:53;;;;;;;7.72;4.15;;;;;;;;;;5052897;28;20062;-35
2021/12/26 04:21:19;;;;;;;4.10;2.70;;;;;;;;;;5052924;28;20028;-36
2021/12/26 04:23:44;;;;;;;6.63;3.55;;;;;;;;;;5052637;28;20025;-35
2021/12/26 04:26:10;;;;;;;6.28;3.80;;;;;;;;;;5052905;28;20116;-36
2021/12/26 04:28:35;;;;;;;6.60;4.00;;;;;;;;;;5052816;28;20025;-35
2021/12/26 04:31:01;;;;;;;4.32;2.38;;;;;;;;;;5052557;28;20098;-36
2021/12/26 04:33:27;;;;;;;7.72;3.58;;;;;;;;;;5052381;28;20028;-35
2021/12/26 04:35:52;;;;;;;6.43;3.40;;;;;;;;;;5052470;28;20070;-35
2021/12/26 04:38:18;;;;;;;7.90;3.47;;;;;;;;;;5052319;28;20028;-36
2021/12/26 04:40:43;;;;;;;6.07;3.25;;;;;;;;;;5052357;28;20037;-36
2021/12/26 04:43:09;;;;;;;8.00;4.25;;;;;;;;;;5052655;28;20033;-36
2021/12/26 04:45:34;;;;;;;7.47;3.35;;;;;;;;;;5052329;28;20060;-35
2021/12/26 04:48:02;;;;;;;3.40;2.70;;;;;;;;;;5052099;28;20053;-36
2021/12/26 04:50:28;;;;;;;4.82;3.20;;;;;;;;;;5052299;28;20021;-35
2021/12/26 04:52:55;;;;;;;8.05;3.55;;;;;;;;;;5052235;28;20107;-35
2021/12/26 04:55:23;;;;;;;5.85;2.90;;;;;;;;;;5052243;28;20112;-36
2021/12/26 04:57:49;;;;;;;7.10;3.45;;;;;;;;;;5052375;28;20116;-35
2021/12/26 05:00:17;;;;;;;4.60;2.83;;;;;;;;;;5052445;28;20095;-36
2021/12/26 05:02:44;;;;;;;8.18;4.65;;;;;;;;;;5052387;28;20040;-36
2021/12/26 05:05:10;;;;;;;8.48;3.70;;;;;;;;;;5055533;28;20048;-36
2021/12/26 05:07:37;;;;;;;7.22;3.30;;;;;;;;;;5056135;28;20488;-35
2021/12/26 05:10:05;;;;;;;5.30;3.42;;;;;;;;;;5056422;28;20086;-35
2021/12/26 05:12:30;;;;;;;8.65;3.47;;;;;;;;;;5056051;28;20052;-36
2021/12/26 05:14:56;;;;;;;3.33;2.17;;;;;;;;;;5056428;28;20025;-35
2021/12/26 05:17:21;;;;;;;2.90;1.92;;;;;;;;;;5055991;28;20108;-35
2021/12/26 05:19:47;;;;;;;3.05;1.77;;;;;;;;;;5056326;28;20040;-36
2021/12/26 05:22:12;;;;;;;4.18;2.60;;;;;;;;;;5056263;28;20562;-35
2021/12/26 05:24:39;;;;;;;4.15;2.05;;;;;;;;;;5056201;28;20480;-36
2021/12/26 05:27:05;;;;;;;4.13;2.58;;;;;;;;;;5055879;28;20029;-35
2021/12/26 05:29:30;;;;;;;2.25;1.77;;;;;;;;;;5056182;28;20029;-36
2021/12/26 05:31:56;;;;;;;7.72;4.10;;;;;;;;;;5055985;28;20472;-35
2021/12/26 05:34:21;;;;;;;2.92;2.22;;;;;;;;;;5055792;28;20035;-35
2021/12/26 05:36:47;;;;;;;5.15;3.00;;;;;;;;;;5055772;28;20488;-36
2021/12/26 05:39:13;;;;;;;7.85;3.90;;;;;;;;;;5055590;28;20040;-35
2021/12/26 05:41:41;;;;;;;4.85;2.90;;;;;;;;;;5055623;28;20115;-35
2021/12/26 05:44:07;;;;;;;7.45;3.42;;;;;;;;;;5055938;28;20029;-35
2021/12/26 05:46:32;;;;;;;7.00;3.97;;;;;;;;;;5055643;28;20021;-35
2021/12/26 05:49:00;;;;;;;4.30;2.95;;;;;;;;;;5055623;28;20377;-35
2021/12/26 05:51:26;;;;;;;8.02;4.20;;;;;;;;;;5055708;28;20107;-35
2021/12/26 05:53:52;;;;;;;4.32;2.70;;;;;;;;;;5055323;28;20469;-35
2021/12/26 05:56:18;;;;;;;9.77;4.70;;;;;;;;;;5055366;28;20032;-36
2021/12/26 05:58:43;;;;;;;7.00;3.08;;;;;;;;;;5055527;28;20029;-35
2021/12/26 06:01:09;;;;;;;8.68;4.03;;;;;;;;;;5055555;28;20021;-35
2021/12/26 06:03:34;;;;;;;6.00;3.55;;;;;;;;;;5055251;28;20428;-35
2021/12/26 06:06:00;;;;;;;5.43;2.78;;;;;;;;;;5055069;28;20029;-35
2021/12/26 06:08:25;;;;;;;6.03;2.65;;;;;;;;;;5055447;28;20029;-35
2021/12/26 06:10:51;;;;;;;5.40;3.30;;;;;;;;;;5055140;28;20158;-35
2021/12/26 06:13:16;;;;;;;8.45;3.85;;;;;;;;;;5055276;28;20029;-36
2021/12/26 06:15:42;;;;;;;4.13;2.80;;;;;;;;;;5054269;28;20029;-35
2021/12/26 06:18:07;;;;;;;7.75;3.85;;;;;;;;;;5054894;28;20082;-35
2021/12/26 06:20:33;;;;;;;3.53;2.42;;;;;;;;;;5055135;28;20024;-35
2021/12/26 06:22:59;;;;;;;5.10;2.70;;;;;;;;;;5054917;28;20029;-35
2021/12/26 06:25:24;;;;;;;4.00;2.75;;;;;;;;;;5055092;28;20024;-35
2021/12/26 06:27:50;;;;;;;2.33;1.75;;;;;;;;;;5054712;28;20029;-35
2021/12/26 06:30:15;;;;;;;5.22;2.60;;;;;;;;;;5054748;28;20067;-35
2021/12/26 06:32:41;;;;;;;5.78;3.28;;;;;;;;;;5054902;28;20024;-35
2021/12/26 06:35:08;;;;;;;8.43;3.50;;;;;;;;;;5054675;28;20500;-35
2021/12/26 06:37:35;;;;;;;3.92;1.73;;;;;;;;;;5053174;28;20124;-36
2021/12/26 06:40:00;;;;;;;3.05;2.05;;;;;;;;;;5054800;28;20064;-36
2021/12/26 06:42:29;;;;;;;5.32;2.80;;;;;;;;;;5054736;28;20048;-35
2021/12/26 06:44:54;;;;;;;6.18;2.20;;;;;;;;;;5054483;28;20154;-35
2021/12/26 06:47:20;;;;;;;3.42;2.10;;;;;;;;;;5054227;28;20121;-36
2021/12/26 06:49:46;;;;;;;3.25;2.45;;;;;;;;;;5053050;28;20029;-36
2021/12/26 06:52:12;;;;;;;4.32;2.00;;;;;;;;;;5054308;28;20032;-36
2021/12/26 06:54:38;;;;;;;3.70;1.98;;;;;;;;;;5054336;28;20107;-35
2021/12/26 06:57:04;;;;;;;7.30;3.75;;;;;;;;;;5054159;28;20078;-36
2021/12/26 06:59:30;;;;;;;6.78;3.65;;;;;;;;;;5054106;28;20059;-35
2021/12/26 07:01:55;;;;;;;7.35;3.47;;;;;;;;;;5054052;28;20052;-35
2021/12/26 07:04:21;;;;;;;6.18;3.60;;;;;;;;;;5054426;28;20412;-35
2021/12/26 07:06:47;;;;;;;10.55;4.72;;;;;;;;;;5054332;28;20481;-36
2021/12/26 07:09:12;;;;;;;7.38;4.25;;;;;;;;;;5054001;28;20029;-35
2021/12/26 07:11:38;;;;;;;6.18;3.80;;;;;;;;;;5054287;28;20078;-35
2021/12/26 07:14:04;;;;;;;2.90;2.20;;;;;;;;;;5053880;28;20029;-35
2021/12/26 07:16:29;;;;;;;4.57;2.35;;;;;;;;;;5053984;28;20028;-36
2021/12/26 07:18:55;;;;;;;6.60;2.83;;;;;;;;;;5054107;28;20029;-36
2021/12/26 07:21:21;;;;;;;6.25;3.28;;;;;;;;;;5054148;28;20025;-36
2021/12/26 07:23:46;;;;;;;3.75;2.10;;;;;;;;;;5054097;28;20503;-36
2021/12/26 07:26:12;;;;;;;6.57;3.85;;;;;;;;;;5053746;28;20462;-36
2021/12/26 07:28:37;;;;;;;3.00;2.17;;;;;;;;;;5052767;28;20025;-36
2021/12/26 07:31:04;;;;;;;5.75;2.78;;;;;;;;;;5054522;28;20040;-36
2021/12/26 07:33:29;;;;;;;4.55;3.00;;;;;;;;;;5054392;28;20051;-37
2021/12/26 07:35:55;;;;;;;1.98;1.60;;;;;;;;;;5053844;28;20028;-36
2021/12/26 07:38:21;;;;;;;3.45;1.85;;;;;;;;;;5053547;28;20032;-35
2021/12/26 07:40:47;;;;;;;8.25;2.50;;;;;;;;;;5053690;28;20029;-35
2021/12/26 07:43:13;;;;;;;6.75;2.78;;;;;;;;;;5053578;28;20057;-36
2021/12/26 07:45:39;;;;;;;2.47;2.28;;;;;;;;;;5053602;28;20028;-35
2021/12/26 07:48:04;;;;;;;8.13;4.07;;;;;;;;;;5053264;28;20452;-36
2021/12/26 07:50:30;;;;;;;5.13;3.78;;;;;;;;;;5053663;28;20025;-35
2021/12/26 07:53:02;;;;;;;9.73;4.97;;;;;;;;;;5053593;28;20484;-35
2021/12/26 07:55:27;;;;;;;7.25;3.85;;;;;;;;;;5053151;28;20036;-35
2021/12/26 07:57:53;;;;;;;5.20;3.08;;;;;;;;;;5052995;28;20029;-35
2021/12/26 08:00:19;;;;;;;10.63;5.85;;;;;;;;;;5053006;28;20111;-35
2021/12/26 08:02:45;;;;;;;11.25;5.40;;;;;;;;;;5053505;28;20113;-35
2021/12/26 08:05:11;;;;;;;9.18;4.50;;;;;;;;;;5053210;28;20044;-35
2021/12/26 08:07:36;;;;;;;10.77;5.88;;;;;;;;;;5053605;28;20039;-35
2021/12/26 08:10:03;;;;;;;8.88;4.75;;;;;;;;;;5053593;28;20032;-35
2021/12/26 08:12:29;;;;;;;8.98;5.43;;;;;;;;;;5053167;28;20029;-35
2021/12/26 08:14:54;;;;;;;10.18;5.32;;;;;;;;;;5053439;28;20091;-35
2021/12/26 08:17:20;;;;;;;8.40;5.03;;;;;;;;;;5053232;28;20345;-35
2021/12/26 08:19:45;;;;;;;8.77;3.88;;;;;;;;;;5053239;28;20419;-35
2021/12/26 08:22:11;;;;;;;3.13;2.13;;;;;;;;;;5052872;28;20040;-35
2021/12/26 08:24:36;;;;;;;7.18;4.35;;;;;;;;;;5052850;28;20025;-35
2021/12/26 08:27:02;;;;;;;9.57;4.35;;;;;;;;;;5052589;28;20377;-36
2021/12/26 08:29:28;;;;;;;7.95;3.28;;;;;;;;;;5053042;28;20082;-36
2021/12/26 08:31:56;;;;;;;11.82;5.32;;;;;;;;;;5052754;28;20025;-35
2021/12/26 08:34:23;;;;;;;8.90;5.20;;;;;;;;;;5052527;28;20132;-35
2021/12/26 08:36:57;;;;;;;13.90;7.72;;;;;;;;;;5052920;28;20385;-35
2021/12/26 08:39:24;;;;;;;11.38;4.82;;;;;;;;;;5052014;28;20028;-36
2021/12/26 08:41:49;;;;;;;9.13;5.60;;;;;;;;;;5052719;28;20029;-35
2021/12/26 08:44:16;;;;;;;10.45;6.07;;;;;;;;;;5052549;28;20391;-36
2021/12/26 08:46:43;;;;;;;12.27;4.85;;;;;;;;;;5052008;28;20048;-35
2021/12/26 08:49:10;;;;;;;10.20;5.60;;;;;;;;;;5052302;28;20045;-36
2021/12/26 08:51:36;;;;;;;6.07;3.67;;;;;;;;;;5052794;28;20116;-35
2021/12/26 08:54:02;;;;;;;11.10;4.10;;;;;;;;;;5052503;28;20424;-36
2021/12/26 08:56:29;;;;;;;6.15;3.75;;;;;;;;;;5052126;28;20060;-35
2021/12/26 08:58:55;;;;;;;8.27;3.08;;;;;;;;;;5052190;28;20124;-35
2021/12/26 09:01:21;;;;;;;5.82;3.50;;;;;;;;;;5052394;28;20116;-36
2021/12/26 09:03:46;;;;;;;9.73;3.05;;;;;;;;;;5052358;28;20104;-36
2021/12/26 09:06:12;;;;;;;12.98;4.10;;;;;;;;;;5052070;28;20099;-36
2021/12/26 09:08:38;;;;;;;6.15;3.40;;;;;;;;;;5052336;28;20525;-35
2021/12/26 09:11:04;;;;;;;8.05;4.50;;;;;;;;;;5052291;28;20381;-35
2021/12/26 09:13:29;;;;;;;6.15;3.67;;;;;;;;;;5052398;28;20029;-35
2021/12/26 09:15:55;;;;;;;5.85;3.28;;;;;;;;;;5051967;28;20486;-35
2021/12/26 09:18:21;;;;;;;5.07;3.08;;;;;;;;;;5051866;28;20033;-35
2021/12/26 09:20:46;;;;;;;6.85;3.78;;;;;;;;;;5052180;28;20025;-35
2021/12/26 09:23:12;;;;;;;6.03;3.70;;;;;;;;;;5051747;28;20507;-35
2021/12/26 09:25:37;;;;;;;5.57;2.95;;;;;;;;;;5052054;28;20040;-36
2021/12/26 09:28:03;;;;;;;8.95;3.88;;;;;;;;;;5052209;28;20068;-35
2021/12/26 09:30:30;;;;;;;9.48;4.30;;;;;;;;;;5050618;28;20085;-35
2021/12/26 09:32:56;;;;;;;6.07;3.20;;;;;;;;;;5052083;28;20040;-35
2021/12/26 09:35:21;;;;;;;5.70;3.25;;;;;;;;;;5051979;28;20056;-35
2021/12/26 09:37:47;;;;;;;3.92;2.13;;;;;;;;;;5051723;28;20064;-35
2021/12/26 09:40:14;;;;;;;3.80;2.13;;;;;;;;;;5051916;28;20021;-37
2021/12/26 09:42:42;;;;;;;4.85;2.25;;;;;;;;;;5050308;28;20021;-35
2021/12/26 09:45:09;;;;;;;6.13;2.78;;;;;;;;;;5051722;28;20527;-35
2021/12/26 09:47:37;;;;;;;6.95;2.58;;;;;;;;;;5051512;28;20528;-35
2021/12/26 09:50:03;;;;;;;5.20;2.40;;;;;;;;;;5051742;28;20119;-36
2021/12/26 09:52:29;;;;;;;4.88;3.42;;;;;;;;;;5055093;28;20021;-37
2021/12/26 09:54:55;;;;;;;5.78;3.55;;;;;;;;;;5055332;28;20039;-36
2021/12/26 09:57:23;;;;;;;5.25;3.20;;;;;;;;;;5055231;28;20068;-36
2021/12/26 09:59:48;;;;;;;6.90;2.97;;;;;;;;;;5055281;28;20078;-35
2021/12/26 10:02:15;;;;;;;3.13;2.22;;;;;;;;;;5055396;28;20029;-36
2021/12/26 10:04:43;;;;;;;3.05;2.13;;;;;;;;;;5055489;28;20158;-35
2021/12/26 10:07:12;;;;;;;4.13;2.33;;;;;;;;;;5055454;28;20029;-36
2021/12/26 10:09:41;;;;;;;4.72;3.30;;;;;;;;;;5055350;28;20053;-35
2021/12/26 10:12:08;;;;;;;6.10;3.42;;;;;;;;;;5055356;28;20020;-35
2021/12/26 10:14:38;;;;;;;3.88;2.00;;;;;;;;;;5055353;28;20478;-35
2021/12/26 10:17:06;;;;;;;;;;;;;;;;;;5055420;28;20120;-37
2021/12/26 10:19:37;;;;;;;2.45;1.33;;;;;;;;;;5054833;28;20347;-35
2021/12/26 10:22:04;;;;;;;5.05;1.90;;;;;;;;;;5055100;28;20027;-36
2021/12/26 10:24:35;;;;;;;4.25;2.35;;;;;;;;;;5054806;28;20037;-36
2021/12/26 10:27:05;;;;;;;2.33;1.60;;;;;;;;;;5045334;28;20033;-36
2021/12/26 10:29:33;;;;;;;3.40;1.98;;;;;;;;;;5034510;28;20108;-37
2021/12/26 10:32:09;;;;;;;6.40;2.78;;;;;;;;;;5032989;28;20036;-35
2021/12/26 10:34:45;;;;;;;5.80;2.55;;;;;;;;;;5034067;28;20044;-36
2021/12/26 10:37:16;;;;;;;3.38;1.77;;;;;;;;;;5034434;28;20540;-36
2021/12/26 10:39:43;;;;;;;5.82;3.17;;;;;;;;;;5034498;28;20037;-36
2021/12/26 10:42:13;;;;;;;5.45;3.15;;;;;;;;;;5033934;28;20045;-36
2021/12/26 10:44:49;;;;;;;8.05;4.63;;;;;;;;;;5034387;28;20496;-35
2021/12/26 10:47:17;;;;;;;8.23;4.03;;;;;;;;;;5034091;28;20052;-36
2021/12/26 10:49:53;;;;;;;6.43;3.67;;;;;;;;;;5034418;28;20033;-36
2021/12/26 10:52:22;;;;;;;3.30;2.35;;;;;;;;;;5033158;28;20543;-36
2021/12/26 10:54:57;;;;;;;4.45;2.13;;;;;;;;;;5034277;28;20037;-36
2021/12/26 10:57:26;;;;;;;4.15;2.20;;;;;;;;;;5033660;28;20029;-36
2021/12/26 11:00:04;;;;;;;1.88;1.38;;;;;;;;;;5034136;28;20030;-36
2021/12/26 11:02:32;;;;;;;5.85;3.08;;;;;;;;;;5033860;28;20022;-37
2021/12/26 11:05:03;;;;;;;3.28;2.15;;;;;;;;;;5033751;28;20060;-36
2021/12/26 11:07:38;;;;;;;3.67;1.80;;;;;;;;;;5034132;28;20516;-37
2021/12/26 11:10:11;;;;;;;0.60;0.60;;;;;;;;;;5034166;28;20052;-37
2021/12/26 11:12:39;;;;;;;2.25;1.63;;;;;;;;;;5033767;28;20549;-37
2021/12/26 11:15:06;;;;;;;2.75;2.03;;;;;;;;;;5032613;28;20025;-37
2021/12/26 11:17:44;;;;;;;1.50;1.40;;;;;;;;;;5032567;28;20026;-37
2021/12/26 11:20:22;;;;;;;1.63;1.50;;;;;;;;;;5033580;28;20424;-37
2021/12/26 11:22:47;;;;;;;2.90;1.80;;;;;;;;;;5033787;28;20057;-37
2021/12/26 11:25:13;;;;;;;1.48;0.95;;;;;;;;;;5033624;28;20237;-37
2021/12/26 11:27:39;;;;;;;3.42;2.20;;;;;;;;;;5033682;28;20029;-38
2021/12/26 11:30:07;;;;;;;3.35;2.05;;;;;;;;;;5033897;28;20422;-36
2021/12/26 11:32:33;;;;;;;2.65;1.63;;;;;;;;;;5033866;28;20405;-37
2021/12/26 11:35:00;;;;;;;1.33;1.23;;;;;;;;;;5032167;28;20029;-37
2021/12/26 11:37:26;;;;;;;0.77;0.77;;;;;;;;;;5033639;28;20072;-37
2021/12/26 11:39:53;;;;;;;4.25;2.15;;;;;;;;;;5033319;28;20060;-38
2021/12/26 11:42:40;;;;;;;1.00;1.00;;;;;;;;;;5032944;28;20493;-37
2021/12/26 11:45:30;;;;;;;1.00;0.95;;;;;;;;;;5033459;28;20503;-37
2021/12/26 11:48:09;;;;;;;3.50;1.48;;;;;;;;;;5033336;28;20089;-38
2021/12/26 11:50:52;;;;;;;1.80;1.30;;;;;;;;;;5033074;28;20116;-37
2021/12/26 11:53:36;;;;;;;2.70;1.70;;;;;;;;;;5033037;28;20083;-38
2021/12/26 11:56:01;;;;;;;2.92;1.80;;;;;;;;;;5032933;28;20044;-37
2021/12/26 11:58:58;;;;;;;14.32;2.30;;;;;;;;;;5033215;28;20112;-38
2021/12/26 12:01:25;;;;;;;0.52;0.52;;;;;;;;;;5032924;28;20500;-38
2021/12/26 12:04:27;;;;;;;1.95;1.30;;;;;;;;;;5032435;28;20508;-37
2021/12/26 12:06:56;;;;;;;4.15;1.80;;;;;;;;;;5033459;28;20029;-37
2021/12/26 12:09:35;;;;;;;1.80;1.70;;;;;;;;;;5033647;28;20563;-37
2021/12/26 12:12:12;;;;;;;5.45;1.83;;;;;;;;;;5032068;28;20504;-37
2021/12/26 12:14:56;;;;;;;3.53;1.92;;;;;;;;;;5032766;28;20124;-37
2021/12/26 12:17:25;;;;;;;7.80;2.28;;;;;;;;;;5033450;28;20037;-37
2021/12/26 12:20:07;;;;;;;5.05;2.63;;;;;;;;;;5032178;28;20036;-39
2021/12/26 12:22:33;;;;;;;5.50;2.38;;;;;;;;;;5033347;28;20048;-38
2021/12/26 12:25:33;;;;;;;5.10;2.45;;;;;;;;;;5032937;28;20099;-37
2021/12/26 12:28:21;;;;;;;4.07;2.33;;;;;;;;;;5033131;28;20036;-39
2021/12/26 12:31:15;;;;;;;4.50;2.42;;;;;;;;;;5033142;28;20061;-39
2021/12/26 12:33:42;;;;;;;5.07;2.83;;;;;;;;;;5032677;28;20030;-39
2021/12/26 12:36:26;;;;;;;5.82;2.55;;;;;;;;;;5033266;28;20160;-39
2021/12/26 12:38:51;;;;;;;4.57;2.40;;;;;;;;;;5033040;28;20052;-38
2021/12/26 12:41:29;;;;;;;3.80;1.90;;;;;;;;;;5032416;28;20079;-38
2021/12/26 12:44:00;;;;;;;1.50;1.33;;;;;;;;;;5033157;28;20034;-37
2021/12/26 12:46:27;;;;;;;2.65;1.52;;;;;;;;;;5032771;28;20032;-36
2021/12/26 12:49:07;;;;;;;3.65;1.70;;;;;;;;;;5032315;28;20042;-37
2021/12/26 12:51:44;;;;;;;2.95;1.85;;;;;;;;;;5032853;28;20041;-38
2021/12/26 12:54:23;;;;;;;2.85;2.00;;;;;;;;;;5032625;28;20037;-38
2021/12/26 12:56:49;;;;;;;1.25;1.15;;;;;;;;;;5031723;28;20022;-37
2021/12/26 12:59:20;;;;;;;2.72;1.55;;;;;;;;;;5032383;28;20030;-38
2021/12/26 13:01:52;;;;;;;3.40;1.67;;;;;;;;;;5032256;28;20037;-38
2021/12/26 13:04:47;;;;;;;5.75;2.78;;;;;;;;;;5031882;28;20048;-38
2021/12/26 13:07:29;;;;;;;8.20;3.05;;;;;;;;;;5032505;28;20120;-38
2021/12/26 13:09:59;;;;;;;3.60;2.70;;;;;;;;;;5032252;28;20036;-38
2021/12/26 13:12:26;;;;;;;5.45;2.97;;;;;;;;;;5032478;28;20502;-38
2021/12/26 13:14:57;;;;;;;7.07;3.08;;;;;;;;;;5032506;28;20029;-38
2021/12/26 13:17:39;;;;;;;6.88;3.28;;;;;;;;;;5030648;28;20052;-37
2021/12/26 13:20:08;;;;;;;7.75;3.35;;;;;;;;;;5032233;28;20044;-38
2021/12/26 13:22:47;;;;;;;7.13;3.67;;;;;;;;;;5032507;28;20440;-38
2021/12/26 13:25:24;;;;;;;5.60;3.22;;;;;;;;;;5033106;28;20034;-38
2021/12/26 13:27:49;;;;;;;7.43;3.38;;;;;;;;;;5036078;28;20031;-39
2021/12/26 13:30:15;;;;;;;5.35;3.25;;;;;;;;;;5036344;28;20025;-39
2021/12/26 13:32:41;;;;;;;5.50;3.47;;;;;;;;;;5035566;28;20109;-38
2021/12/26 13:35:09;;;;;;;5.25;3.45;;;;;;;;;;5036088;28;20029;-38
2021/12/26 13:37:35;;;;;;;4.50;2.95;;;;;;;;;;5035876;28;20037;-39
2021/12/26 13:40:03;;;;;;;4.47;2.85;;;;;;;;;;5035433;28;20052;-38
2021/12/26 13:42:30;;;;;;;8.18;3.55;;;;;;;;;;5035445;28;20112;-38
2021/12/26 13:44:56;;;;;;;8.00;3.42;;;;;;;;;;5035501;28;20040;-39
2021/12/26 13:47:22;;;;;;;4.95;2.92;;;;;;;;;;5035213;28;20037;-39
2021/12/26 13:49:48;;;;;;;6.32;3.10;;;;;;;;;;5035985;28;20080;-39
2021/12/26 13:52:19;;;;;;;6.63;3.17;;;;;;;;;;5035398;28;20083;-39
2021/12/26 13:54:50;;;;;;;5.38;3.30;;;;;;;;;;5035249;28;20080;-38
2021/12/26 13:57:19;;;;;;;6.78;3.15;;;;;;;;;;5035472;28;20091;-38
2021/12/26 13:59:50;;;;;;;7.30;3.50;;;;;;;;;;5035241;28;20049;-39
2021/12/26 14:02:21;;;;;;;3.33;2.53;;;;;;;;;;5035158;28;20033;-39
2021/12/26 14:04:51;;;;;;;;;;;;;;;;;;5035721;28;20060;-39
2021/12/26 14:07:18;;;;;;;4.75;3.13;;;;;;;;;;5035490;28;20039;-38
2021/12/26 14:09:45;;;;;;;5.88;3.17;;;;;;;;;;5035096;28;20113;-38
2021/12/26 14:12:42;;;;;;;4.65;3.17;;;;;;;;;;5035190;28;20025;-37
2021/12/26 14:15:34;;;;;;;6.20;3.50;;;;;;;;;;5035293;28;20124;-38
2021/12/26 14:18:16;;;;;;;6.20;3.20;;;;;;;;;;5034618;28;20036;-38
2021/12/26 14:20:45;;;;;;;7.07;3.67;;;;;;;;;;5034724;28;20033;-38
2021/12/26 14:23:41;;;;;;;5.07;3.53;;;;;;;;;;5035277;28;20017;-39
2021/12/26 14:26:11;;;;;;;9.20;4.00;;;;;;;;;;5034296;28;20037;-40
2021/12/26 14:28:53;;;;;;;6.15;3.70;;;;;;;;;;5034680;28;20486;-39
2021/12/26 14:31:32;;;;;;;12.73;4.18;;;;;;;;;;5034664;28;20034;-39
2021/12/26 14:33:59;;;;;;;8.25;3.70;;;;;;;;;;5034689;28;20021;-39
2021/12/26 14:36:25;;;;;;;7.22;3.75;;;;;;;;;;5034085;28;20374;-38
2021/12/26 14:39:03;;;;;;;7.53;3.97;;;;;;;;;;5032972;28;20032;-38
2021/12/26 14:41:39;;;;;;;10.27;4.50;;;;;;;;;;5034235;28;20026;-38
2021/12/26 14:44:19;;;;;;;6.78;4.40;;;;;;;;;;5034811;28;20059;-38
2021/12/26 14:46:46;;;;;;;6.50;3.87;;;;;;;;;;5034165;28;20052;-38
2021/12/26 14:49:14;;;;;;;9.65;4.45;;;;;;;;;;5034319;28;20032;-38
2021/12/26 14:51:40;;;;;;;10.38;4.85;;;;;;;;;;5034596;28;20037;-38
2021/12/26 14:54:10;;;;;;;13.20;5.50;;;;;;;;;;5034249;28;20032;-38